Time;durP1;ratioP1;P1;durP2;ratioP2;P2;SDS_P1;SDS_P2;PMS_P1;PMS_P2;Temp;Humidity;BMP_temperature;BMP_pressure;BME280_temperature;BME280_humidity;BME280_pressure;Samples;Min_cycle;Max_cycle;Signal;HPM_P1;HPM_P2
2022/11/15 00:00:31;;;;;;;7.33;3.80;;;;;;;8.37;88.93;95326.38;4956801;28;20193;-81
2022/11/15 00:02:56;;;;;;;4.97;3.47;;;;;;;8.32;88.43;95328.56;4975803;28;20220;-81
2022/11/15 00:05:22;;;;;;;6.13;3.70;;;;;;;8.34;88.58;95321.47;4972115;28;20204;-81
2022/11/15 00:07:47;;;;;;;4.17;3.47;;;;;;;8.35;88.58;95320.53;4984564;28;20645;-81
2022/11/15 00:10:12;;;;;;;4.77;3.43;;;;;;;8.33;88.59;95310.28;4964670;28;20196;-80
2022/11/15 00:12:38;;;;;;;4.80;3.30;;;;;;;8.31;88.36;95319.97;4978268;28;20204;-81
2022/11/15 00:15:04;;;;;;;7.17;3.90;;;;;;;8.30;88.44;95317.50;4976623;28;20716;-81
2022/11/15 00:17:29;;;;;;;5.60;3.40;;;;;;;8.27;88.19;95304.84;4963726;28;20228;-81
2022/11/15 00:19:55;;;;;;;5.77;3.47;;;;;;;8.27;88.64;95313.44;4970304;28;20188;-81
2022/11/15 00:22:20;;;;;;;5.17;3.80;;;;;;;8.20;88.42;95304.59;4971427;28;20563;-80
2022/11/15 00:24:45;;;;;;;4.43;3.30;;;;;;;8.22;88.54;95307.88;4983920;28;20680;-80
2022/11/15 00:27:11;;;;;;;5.33;3.73;;;;;;;8.23;88.69;95306.91;4962877;28;20185;-80
2022/11/15 00:29:38;;;;;;;5.17;3.63;;;;;;;8.20;88.93;95312.34;4978352;28;20196;-82
2022/11/15 00:32:04;;;;;;;3.90;3.30;;;;;;;8.12;88.51;95314.81;4977952;28;20224;-81
2022/11/15 00:34:29;;;;;;;5.57;3.40;;;;;;;8.15;89.03;95305.03;4963865;28;20185;-81
2022/11/15 00:36:54;;;;;;;5.30;3.77;;;;;;;8.08;89.27;95300.53;4951196;28;20220;-80
2022/11/15 00:39:19;;;;;;;7.20;3.73;;;;;;;8.04;89.67;95301.75;4978335;28;20204;-80
2022/11/15 00:41:45;;;;;;;5.10;3.50;;;;;;;8.02;89.60;95299.31;4960347;28;20361;-80
2022/11/15 00:44:10;;;;;;;5.67;4.20;;;;;;;7.98;89.71;95297.16;4979601;28;20196;-81
2022/11/15 00:46:35;;;;;;;5.70;3.83;;;;;;;7.89;90.57;95296.19;4977362;28;20185;-81
2022/11/15 00:49:01;;;;;;;4.30;3.90;;;;;;;7.85;90.84;95293.06;4973997;28;20196;-81
2022/11/15 00:51:26;;;;;;;4.57;3.83;;;;;;;7.82;90.43;95295.94;4973820;28;20220;-81
2022/11/15 00:53:51;;;;;;;4.97;3.40;;;;;;;7.84;91.33;95300.97;4978331;28;20208;-81
2022/11/15 00:56:16;;;;;;;4.47;3.33;;;;;;;7.79;91.35;95293.63;4969844;28;20212;-80
2022/11/15 00:58:42;;;;;;;5.60;3.30;;;;;;;7.81;91.59;95301.25;4950767;28;20236;-81
2022/11/15 01:01:13;;;;;;;4.83;3.60;;;;;;;7.77;91.31;95294.69;4961307;28;20209;-81
2022/11/15 01:03:39;;;;;;;4.13;3.73;;;;;;;7.75;91.46;95297.41;4968553;28;20625;-81
2022/11/15 01:06:05;;;;;;;4.47;3.70;;;;;;;7.77;91.62;95289.53;4971952;28;20188;-80
2022/11/15 01:08:30;;;;;;;4.43;3.30;;;;;;;7.73;91.67;95294.16;4973516;28;20716;-81
2022/11/15 01:11:00;;;;;;;4.87;3.43;;;;;;;7.70;92.00;95293.63;4969063;28;20193;-81
2022/11/15 01:13:26;;;;;;;5.90;3.60;;;;;;;7.68;91.95;95285.97;4970059;28;20235;-81
2022/11/15 01:15:51;;;;;;;5.43;3.53;;;;;;;7.67;92.60;95279.19;4962557;28;20185;-81
2022/11/15 01:18:16;;;;;;;5.30;3.87;;;;;;;7.72;92.30;95282.19;4964993;28;20243;-81
2022/11/15 01:20:42;;;;;;;5.67;4.03;;;;;;;7.78;91.93;95278.25;4968902;28;20303;-81
2022/11/15 01:23:07;;;;;;;5.10;3.53;;;;;;;7.81;92.06;95273.63;4968331;28;20641;-81
2022/11/15 01:25:33;;;;;;;8.00;3.77;;;;;;;7.75;91.83;95271.56;4973629;28;20203;-81
2022/11/15 01:27:58;;;;;;;4.30;3.20;;;;;;;7.76;92.27;95274.97;4950182;28;20185;-80
2022/11/15 01:30:23;;;;;;;5.17;3.53;;;;;;;7.80;92.57;95274.56;4968252;28;20640;-80
2022/11/15 01:32:48;;;;;;;6.23;3.87;;;;;;;7.85;92.41;95271.56;4973403;28;20255;-80
2022/11/15 01:35:14;;;;;;;4.87;4.00;;;;;;;7.89;92.10;95272.94;4956900;28;20193;-80
2022/11/15 01:37:39;;;;;;;3.87;3.40;;;;;;;7.86;92.46;95266.28;4972980;28;20209;-81
2022/11/15 01:40:05;;;;;;;5.57;3.80;;;;;;;7.93;92.34;95267.34;4972000;28;20203;-80
2022/11/15 01:42:30;;;;;;;4.47;3.70;;;;;;;7.94;92.44;95263.78;4986151;28;20263;-81
2022/11/15 01:44:55;;;;;;;4.03;3.57;;;;;;;7.92;92.39;95263.13;4976532;28;20192;-81
2022/11/15 01:47:25;;;;;;;5.67;4.07;;;;;;;7.99;92.08;95265.97;4972563;28;20273;-82
2022/11/15 01:49:52;;;;;;;4.37;3.43;;;;;;;8.01;92.16;95261.47;4973592;28;20195;-79
2022/11/15 01:52:20;;;;;;;3.87;3.47;;;;;;;8.04;92.01;95261.22;4959882;28;20216;-79
2022/11/15 01:54:48;;;;;;;4.83;3.80;;;;;;;8.10;91.59;95252.88;4981417;28;20215;-80
2022/11/15 01:57:13;;;;;;;5.00;3.63;;;;;;;8.10;91.41;95255.47;4966837;28;20227;-79
2022/11/15 01:59:42;;;;;;;4.17;3.00;;;;;;;8.10;91.48;95254.66;4972773;28;20193;-80
2022/11/15 02:02:07;;;;;;;6.87;3.67;;;;;;;8.12;91.34;95248.38;4980354;28;20244;-81
2022/11/15 02:04:37;;;;;;;5.03;3.63;;;;;;;8.09;91.57;95242.69;4970759;28;20325;-79
2022/11/15 02:07:04;;;;;;;5.57;3.40;;;;;;;8.14;91.39;95246.50;4978545;28;20224;-82
2022/11/15 02:09:30;;;;;;;4.73;3.67;;;;;;;8.16;91.36;95251.53;4980516;28;20244;-81
2022/11/15 02:11:55;;;;;;;3.63;3.23;;;;;;;8.15;91.58;95249.88;4962889;28;20213;-81
2022/11/15 02:14:22;;;;;;;5.17;3.30;;;;;;;8.22;91.04;95249.19;4969948;28;20209;-81
2022/11/15 02:17:06;;;;;;;4.27;3.43;;;;;;;8.28;91.20;95242.63;4968445;28;20216;-82
2022/11/15 02:19:31;;;;;;;4.80;3.57;;;;;;;8.33;90.52;95232.69;4963045;28;20267;-81
2022/11/15 02:22:25;;;;;;;3.43;3.13;;;;;;;8.36;90.48;95235.00;4966623;28;20573;-82
2022/11/15 02:25:22;;;;;;;4.63;3.10;;;;;;;8.30;90.77;95221.78;4954169;28;20255;-82
2022/11/15 02:27:59;;;;;;;6.37;3.20;;;;;;;8.33;90.98;95219.75;4927215;28;20339;-80
2022/11/15 02:30:35;;;;;;;6.50;3.20;;;;;;;8.39;91.22;95223.56;4980944;28;20195;-81
2022/11/15 02:33:14;;;;;;;5.10;3.50;;;;;;;8.35;90.73;95225.63;4962089;28;20238;-81
2022/11/15 02:35:49;;;;;;;4.93;3.53;;;;;;;8.36;90.99;95226.44;4972618;28;20577;-81
2022/11/15 02:38:27;;;;;;;4.70;3.73;;;;;;;8.41;90.77;95226.84;4963936;28;20239;-80
2022/11/15 02:41:02;;;;;;;7.87;3.60;;;;;;;8.41;89.68;95222.47;4963577;28;20195;-81
2022/11/15 02:49:14;;;;;;;4.20;3.43;;;;;;;8.39;90.49;95205.44;4971257;28;20675;-80
2022/11/15 02:51:41;;;;;;;3.97;3.57;;;;;;;8.35;90.70;95204.91;4967774;28;20209;-79
2022/11/15 02:54:06;;;;;;;5.50;3.47;;;;;;;8.33;90.92;95204.22;4964627;28;20220;-79
2022/11/15 02:56:32;;;;;;;3.50;3.20;;;;;;;8.37;90.75;95199.59;4972310;28;20236;-80
2022/11/15 02:59:20;;;;;;;5.43;3.70;;;;;;;8.44;90.57;95201.47;4942780;28;20660;-80
2022/11/15 03:01:51;;;;;;;5.43;3.33;;;;;;;8.45;90.05;95200.50;4943028;28;20219;-80
2022/11/15 03:05:05;;;;;;;3.87;3.20;;;;;;;8.44;90.12;95201.47;4979727;28;20649;-79
2022/11/15 03:07:46;;;;;;;5.60;3.50;;;;;;;8.40;90.27;95201.91;4920989;28;20214;-79
2022/11/15 03:10:18;;;;;;;6.00;3.57;;;;;;;8.40;90.04;95197.56;4957456;28;20252;-80
2022/11/15 03:12:57;;;;;;;5.80;3.40;;;;;;;8.40;90.43;95192.38;4954120;28;20768;-80
2022/11/15 03:15:31;;;;;;;4.73;3.37;;;;;;;8.46;89.89;95190.97;4968626;28;20215;-79
2022/11/15 03:18:05;;;;;;;5.10;2.87;;;;;;;8.54;89.60;95187.69;4974932;28;20575;-80
2022/11/15 03:20:30;;;;;;;3.90;3.43;;;;;;;8.57;89.54;95185.63;4961205;28;20188;-80
2022/11/15 03:23:01;;;;;;;4.70;3.13;;;;;;;8.54;89.62;95188.50;4969196;28;20216;-79
2022/11/15 03:25:27;;;;;;;5.30;3.47;;;;;;;8.54;89.41;95182.50;4951371;28;20231;-79
2022/11/15 03:27:55;;;;;;;4.80;3.60;;;;;;;8.60;89.74;95185.34;4962600;28;20212;-80
2022/11/15 03:30:21;;;;;;;4.67;3.20;;;;;;;8.65;88.83;95177.13;4950721;28;20248;-79
2022/11/15 03:32:52;;;;;;;4.17;3.17;;;;;;;8.67;89.41;95173.44;4973945;28;20684;-79
2022/11/15 03:35:20;;;;;;;3.90;3.50;;;;;;;8.65;88.42;95179.72;4959375;28;20205;-80
2022/11/15 03:37:49;;;;;;;5.50;3.10;;;;;;;8.66;88.54;95173.59;4967022;28;20228;-80
2022/11/15 03:40:16;;;;;;;4.73;3.50;;;;;;;8.73;88.17;95170.25;4970745;28;20677;-80
2022/11/15 03:42:46;;;;;;;5.50;3.00;;;;;;;8.76;87.75;95156.22;4944504;28;20197;-79
2022/11/15 03:45:22;;;;;;;3.77;3.10;;;;;;;8.79;87.13;95153.34;4964478;28;20279;-80
2022/11/15 03:47:52;;;;;;;5.00;3.40;;;;;;;8.77;87.04;95153.50;4957915;28;20671;-81
2022/11/15 03:50:20;;;;;;;4.60;2.93;;;;;;;8.74;87.01;95160.72;4954714;28;20256;-80
2022/11/15 03:52:46;;;;;;;5.77;3.40;;;;;;;8.64;86.88;95158.19;4956051;28;20212;-79
2022/11/15 03:55:16;;;;;;;3.47;3.17;;;;;;;8.70;86.85;95165.38;4955885;28;20255;-79
2022/11/15 03:57:41;;;;;;;4.97;2.90;;;;;;;8.64;86.48;95162.56;4958984;28;20231;-79
2022/11/15 04:00:07;;;;;;;5.13;3.07;;;;;;;8.65;86.09;95162.41;4968281;28;20653;-79
2022/11/15 04:02:32;;;;;;;4.17;3.23;;;;;;;8.63;85.78;95164.31;4974288;28;20224;-79
2022/11/15 04:04:57;;;;;;;4.50;3.00;;;;;;;8.65;85.07;95162.41;4973055;28;20199;-79
2022/11/15 04:07:23;;;;;;;5.00;2.97;;;;;;;8.55;85.22;95169.41;4943438;29;20181;-80
2022/11/15 04:10:03;;;;;;;4.97;3.00;;;;;;;8.62;84.99;95167.88;4962836;28;20193;-80
2022/11/15 04:12:37;;;;;;;3.90;3.30;;;;;;;8.60;85.01;95158.63;4973294;28;20211;-80
2022/11/15 04:15:06;;;;;;;4.63;3.03;;;;;;;8.58;85.12;95160.56;4977038;28;20185;-80
2022/11/15 04:17:32;;;;;;;3.67;2.80;;;;;;;8.58;85.31;95155.38;4957470;28;20691;-80
2022/11/15 04:25:27;;;;;;;4.37;2.93;;;;;;;8.48;85.67;95152.81;4972065;28;20180;-80
2022/11/15 04:27:52;;;;;;;4.60;2.70;;;;;;;8.51;85.79;95153.38;4946626;28;20177;-80
2022/11/15 04:30:17;;;;;;;3.53;3.20;;;;;;;8.49;85.90;95151.91;4972906;28;20208;-80
2022/11/15 04:32:42;;;;;;;3.93;2.93;;;;;;;8.52;85.70;95143.84;4974785;28;20714;-80
2022/11/15 04:35:08;;;;;;;3.07;2.77;;;;;;;8.47;86.36;95143.44;4970950;28;20201;-80
2022/11/15 04:37:33;;;;;;;5.37;2.77;;;;;;;8.48;86.53;95142.47;4975279;28;20221;-81
2022/11/15 04:39:59;;;;;;;4.17;3.37;;;;;;;8.53;86.08;95137.69;4966291;28;20252;-81
2022/11/15 04:42:24;;;;;;;3.33;3.00;;;;;;;8.58;86.35;95132.09;4959844;28;20209;-81
2022/11/15 04:44:49;;;;;;;4.53;3.00;;;;;;;8.53;86.08;95122.16;4967517;28;20235;-81
2022/11/15 04:47:14;;;;;;;4.80;2.80;;;;;;;8.56;85.88;95118.47;4951611;28;20592;-81
2022/11/15 04:49:40;;;;;;;4.03;3.20;;;;;;;8.56;85.95;95127.03;4961083;28;20193;-81
2022/11/15 04:52:05;;;;;;;3.60;2.77;;;;;;;8.53;86.06;95122.16;4973424;28;20228;-81
2022/11/15 04:54:30;;;;;;;3.83;3.00;;;;;;;8.55;86.46;95122.81;4974112;28;20306;-80
2022/11/15 04:56:56;;;;;;;3.27;2.80;;;;;;;8.62;85.99;95123.06;4948682;28;20216;-81
2022/11/15 04:59:21;;;;;;;2.80;2.50;;;;;;;8.56;86.41;95113.28;4975270;28;20226;-80
2022/11/15 05:01:46;;;;;;;5.73;2.50;;;;;;;8.58;86.21;95117.38;4968070;28;20208;-80
2022/11/15 05:04:21;;;;;;;4.50;3.00;;;;;;;8.59;85.92;95115.59;4973251;28;20197;-80
2022/11/15 05:06:50;;;;;;;3.13;2.90;;;;;;;8.64;85.76;95114.19;4970045;28;20196;-80
2022/11/15 05:09:17;;;;;;;2.93;2.63;;;;;;;8.62;86.07;95110.13;4959095;28;20189;-80
2022/11/15 05:11:42;;;;;;;5.20;2.57;;;;;;;8.60;86.40;95109.47;4963660;28;20205;-79
2022/11/15 05:14:07;;;;;;;4.60;3.00;;;;;;;8.62;85.78;95112.72;4963930;28;20223;-80
2022/11/15 05:16:33;;;;;;;3.70;2.73;;;;;;;8.65;85.99;95110.63;4942793;28;20318;-79
2022/11/15 05:18:58;;;;;;;5.77;2.80;;;;;;;8.63;85.69;95104.78;4963970;28;20196;-81
2022/11/15 05:21:23;;;;;;;4.23;3.10;;;;;;;8.61;85.69;95111.91;4972168;28;20219;-81
2022/11/15 05:23:49;;;;;;;3.30;2.70;;;;;;;8.59;86.01;95108.66;4952802;28;20192;-81
2022/11/15 05:26:15;;;;;;;3.70;3.30;;;;;;;8.57;86.43;95115.75;4958714;28;20219;-83
2022/11/15 05:28:41;;;;;;;3.83;3.47;;;;;;;8.51;86.41;95104.19;4981593;28;20189;-79
2022/11/15 05:31:08;;;;;;;4.13;3.00;;;;;;;8.48;86.41;95098.47;4973222;28;20561;-82
2022/11/15 05:33:35;;;;;;;7.10;3.30;;;;;;;8.49;86.97;95098.38;4969741;28;20188;-82
2022/11/15 05:36:05;;;;;;;4.03;3.23;;;;;;;8.43;87.16;95092.94;4953303;28;20197;-81
2022/11/15 05:38:30;;;;;;;3.90;3.20;;;;;;;8.47;86.85;95086.50;4965320;28;20201;-80
2022/11/15 05:40:56;;;;;;;5.53;4.00;;;;;;;8.53;86.68;95085.94;4970598;28;20193;-79
2022/11/15 05:43:21;;;;;;;4.07;3.30;;;;;;;8.50;86.99;95086.25;4973001;28;20210;-81
2022/11/15 05:45:46;;;;;;;3.67;3.00;;;;;;;8.49;86.94;95074.25;4976551;28;20681;-80
2022/11/15 05:48:12;;;;;;;3.03;2.73;;;;;;;8.48;87.03;95070.03;4974408;28;20189;-80
2022/11/15 05:50:38;;;;;;;4.23;3.83;;;;;;;8.45;87.97;95042.66;4973850;28;20200;-81
2022/11/15 05:53:04;;;;;;;4.23;3.60;;;;;;;8.37;89.00;95055.53;4965460;28;20236;-81
2022/11/15 05:55:30;;;;;;;3.80;3.07;;;;;;;8.45;88.88;95071.13;4966700;28;20184;-81
2022/11/15 05:57:55;;;;;;;4.10;2.87;;;;;;;8.46;89.04;95090.88;4951636;28;20296;-81
2022/11/15 06:00:21;;;;;;;4.13;3.17;;;;;;;8.49;89.01;95095.78;4957833;28;20609;-80
2022/11/15 06:02:46;;;;;;;4.83;2.87;;;;;;;8.57;88.01;95092.47;4972508;28;20754;-80
2022/11/15 06:05:11;;;;;;;3.60;2.80;;;;;;;8.50;87.16;95094.81;4972012;28;20676;-80
2022/11/15 06:07:36;;;;;;;4.73;2.80;;;;;;;8.56;87.51;95090.81;4942304;28;20231;-81
2022/11/15 06:10:02;;;;;;;5.00;2.80;;;;;;;8.49;87.39;95092.38;4943106;28;20299;-81
2022/11/15 06:12:27;;;;;;;6.60;2.90;;;;;;;8.41;87.91;95100.03;4971032;28;20906;-81
2022/11/15 06:14:53;;;;;;;5.57;2.57;;;;;;;8.35;88.10;95100.63;4969515;28;20952;-81
2022/11/15 06:17:18;;;;;;;3.43;3.13;;;;;;;8.16;88.68;95104.91;4949597;28;20221;-82
2022/11/15 06:19:43;;;;;;;3.37;3.00;;;;;;;8.20;89.26;95110.59;4962670;28;20664;-83
2022/11/15 06:22:09;;;;;;;4.13;2.93;;;;;;;8.18;89.33;95108.16;4961969;28;20225;-81
2022/11/15 06:24:34;;;;;;;3.50;3.10;;;;;;;8.17;89.07;95110.88;4970296;28;20342;-81
2022/11/15 06:27:00;;;;;;;4.83;3.10;;;;;;;8.12;89.63;95108.72;4964320;28;20599;-82
2022/11/15 06:29:25;;;;;;;7.10;3.37;;;;;;;8.12;89.55;95110.50;4968311;28;20192;-82
2022/11/15 06:31:50;;;;;;;4.80;3.27;;;;;;;7.98;90.57;95110.97;4966950;28;20244;-83
2022/11/15 06:34:16;;;;;;;3.67;3.10;;;;;;;8.08;90.27;95112.56;4955787;28;20216;-83
2022/11/15 06:36:41;;;;;;;4.23;3.20;;;;;;;8.09;89.87;95098.66;4951645;28;20220;-82
2022/11/15 06:39:06;;;;;;;3.33;3.00;;;;;;;8.12;89.74;95105.31;4968682;28;20640;-83
2022/11/15 06:41:35;;;;;;;3.80;2.63;;;;;;;8.12;89.59;95113.06;4963529;28;20224;-82
2022/11/15 06:44:01;;;;;;;4.47;2.90;;;;;;;8.19;89.09;95107.19;4961824;28;20304;-83
2022/11/15 06:46:26;;;;;;;6.23;2.60;;;;;;;8.20;89.05;95116.56;4985140;28;20288;-82
2022/11/15 06:48:52;;;;;;;3.97;2.90;;;;;;;8.29;88.41;95111.50;4963753;28;20197;-83
2022/11/15 06:51:18;;;;;;;3.70;2.90;;;;;;;8.28;88.62;95117.63;4970361;28;20217;-82
2022/11/15 06:53:43;;;;;;;3.40;2.70;;;;;;;8.40;87.73;95116.53;4974443;28;20193;-82
2022/11/15 06:56:09;;;;;;;3.30;3.00;;;;;;;8.46;87.35;95115.94;4975522;28;20559;-82
2022/11/15 06:58:34;;;;;;;3.47;2.90;;;;;;;8.54;87.32;95123.78;4970962;28;20714;-82
2022/11/15 07:01:10;;;;;;;3.00;2.67;;;;;;;8.59;87.21;95125.97;4950085;28;20208;-82
2022/11/15 07:03:41;;;;;;;4.33;3.00;;;;;;;8.60;87.19;95122.41;4983760;28;20263;-81
2022/11/15 07:06:07;;;;;;;3.93;2.80;;;;;;;8.69;86.83;95127.53;4975420;28;20218;-81
2022/11/15 07:08:32;;;;;;;3.77;2.70;;;;;;;8.76;86.78;95120.00;4976942;28;20242;-81
2022/11/15 07:11:00;;;;;;;3.90;2.50;;;;;;;8.73;87.10;95123.66;4962041;28;20184;-82
2022/11/15 07:13:26;;;;;;;2.97;2.50;;;;;;;8.86;86.23;95119.91;4966340;28;20260;-80
2022/11/15 07:15:51;;;;;;;2.77;2.57;;;;;;;8.93;86.39;95118.38;4976484;28;20194;-82
2022/11/15 07:18:16;;;;;;;3.20;2.67;;;;;;;9.01;86.20;95115.84;4959191;28;20208;-82
2022/11/15 07:20:42;;;;;;;4.77;2.60;;;;;;;9.11;85.39;95123.56;4974939;28;20705;-82
2022/11/15 07:23:07;;;;;;;3.40;2.43;;;;;;;9.18;85.56;95125.38;4973583;28;20196;-82
2022/11/15 07:25:32;;;;;;;2.83;2.30;;;;;;;9.29;84.83;95116.56;4973481;28;20196;-82
2022/11/15 07:27:58;;;;;;;2.50;2.30;;;;;;;9.28;84.54;95110.59;4950723;28;20181;-82
2022/11/15 07:30:24;;;;;;;2.63;2.43;;;;;;;9.39;84.69;95119.06;4973193;28;20846;-82
2022/11/15 07:32:54;;;;;;;4.73;2.93;;;;;;;9.44;84.09;95112.47;4971459;28;20208;-82
2022/11/15 07:35:23;;;;;;;4.70;2.43;;;;;;;9.47;83.54;95107.00;4972068;28;20189;-82
2022/11/15 07:38:01;;;;;;;2.50;2.30;;;;;;;9.53;83.36;95111.56;4955821;28;20220;-81
2022/11/15 07:40:28;;;;;;;4.60;2.57;;;;;;;9.62;83.54;95105.44;4970610;28;20608;-82
2022/11/15 07:43:05;;;;;;;2.97;2.57;;;;;;;9.62;82.42;95110.63;4964333;28;20209;-80
2022/11/15 07:45:30;;;;;;;4.67;2.53;;;;;;;9.63;83.18;95107.09;4968443;28;20188;-82
2022/11/15 07:47:56;;;;;;;2.77;2.50;;;;;;;9.71;83.26;95102.91;4977224;28;20191;-81
2022/11/15 07:50:23;;;;;;;4.80;2.77;;;;;;;9.74;83.09;95103.44;4982701;28;20181;-82
2022/11/15 07:52:53;;;;;;;3.60;2.70;;;;;;;9.75;83.59;95112.84;4975336;28;20212;-81
2022/11/15 07:55:18;;;;;;;2.60;2.40;;;;;;;9.82;83.25;95111.28;4983809;28;20236;-81
2022/11/15 07:57:44;;;;;;;2.87;2.57;;;;;;;10.00;82.46;95108.59;4961723;28;20240;-81
2022/11/15 08:00:09;;;;;;;2.80;2.10;;;;;;;10.12;82.21;95112.53;4946943;28;20690;-82
2022/11/15 08:02:35;;;;;;;2.60;2.20;;;;;;;10.19;81.92;95115.34;4955548;28;20240;-81
2022/11/15 08:05:00;;;;;;;3.37;2.40;;;;;;;10.35;81.65;95110.25;4974315;28;20274;-81
2022/11/15 08:07:28;;;;;;;4.60;2.40;;;;;;;10.50;80.42;95118.22;4972218;28;20209;-81
2022/11/15 08:09:55;;;;;;;4.97;2.60;;;;;;;10.55;80.42;95104.78;4949692;28;20200;-81
2022/11/15 08:12:20;;;;;;;3.97;2.40;;;;;;;10.65;80.26;95108.88;4969249;28;20209;-81
2022/11/15 08:14:45;;;;;;;3.10;2.13;;;;;;;10.74;80.42;95107.91;4971862;28;20193;-82
2022/11/15 08:17:10;;;;;;;2.77;2.00;;;;;;;10.78;79.76;95106.66;4966524;28;20209;-82
2022/11/15 08:19:36;;;;;;;3.27;2.30;;;;;;;10.83;79.13;95106.16;4948948;28;20208;-82
2022/11/15 08:22:01;;;;;;;3.37;2.10;;;;;;;10.80;79.06;95098.69;4965456;28;20661;-81
2022/11/15 08:24:26;;;;;;;6.07;2.33;;;;;;;10.77;79.04;95107.59;4961374;28;20272;-81
2022/11/15 08:26:52;;;;;;;5.33;2.03;;;;;;;10.63;79.95;95097.84;4968203;28;20188;-80
2022/11/15 08:29:17;;;;;;;3.87;2.10;;;;;;;10.80;79.34;95101.28;4974097;28;20228;-81
2022/11/15 08:31:42;;;;;;;2.67;1.70;;;;;;;10.81;79.26;95099.50;4975637;28;20215;-81
2022/11/15 08:34:08;;;;;;;2.63;2.10;;;;;;;10.82;78.80;95090.72;4974557;28;20215;-81
2022/11/15 08:36:33;;;;;;;4.73;1.73;;;;;;;10.91;78.21;95087.19;4972568;28;20292;-81
2022/11/15 08:38:58;;;;;;;2.80;1.77;;;;;;;10.96;78.31;95085.72;4972698;28;20227;-81
2022/11/15 08:41:27;;;;;;;6.40;2.10;;;;;;;11.06;77.89;95073.41;4960303;28;20217;-81
2022/11/15 08:43:52;;;;;;;2.20;2.00;;;;;;;11.07;77.59;95076.81;4969242;28;20205;-82
2022/11/15 08:46:18;;;;;;;2.33;1.70;;;;;;;11.17;77.69;95079.22;4974099;28;20197;-83
2022/11/15 08:48:43;;;;;;;2.27;2.07;;;;;;;11.16;77.15;95077.63;4971020;28;20193;-81
2022/11/15 08:51:08;;;;;;;2.93;1.90;;;;;;;11.25;76.69;95077.44;4958352;28;20216;-82
2022/11/15 08:53:34;;;;;;;4.00;2.47;;;;;;;11.33;76.76;95074.84;4972250;28;20192;-82
2022/11/15 08:55:59;;;;;;;2.23;1.77;;;;;;;11.40;75.66;95075.00;4965003;28;20177;-82
2022/11/15 08:58:25;;;;;;;3.60;2.33;;;;;;;11.57;75.32;95076.63;4945480;28;20224;-80
2022/11/15 09:00:50;;;;;;;3.23;2.00;;;;;;;11.64;75.50;95074.97;4965214;28;20189;-82
2022/11/15 09:03:15;;;;;;;4.23;2.33;;;;;;;11.90;73.70;95072.16;4953918;28;20196;-81
2022/11/15 09:05:41;;;;;;;3.37;2.50;;;;;;;11.86;73.06;95072.69;4947184;28;20208;-82
2022/11/15 09:08:06;;;;;;;1.83;1.73;;;;;;;12.05;72.12;95074.09;4945712;28;20735;-81
2022/11/15 09:10:32;;;;;;;2.73;2.03;;;;;;;12.09;72.17;95064.94;4969153;28;20192;-82
2022/11/15 09:12:57;;;;;;;4.20;2.10;;;;;;;12.21;72.34;95073.22;4974410;28;20276;-82
2022/11/15 09:15:23;;;;;;;2.27;2.07;;;;;;;12.19;72.19;95071.59;4974713;28;20196;-81
2022/11/15 09:17:48;;;;;;;2.43;1.83;;;;;;;12.36;72.51;95064.50;4951765;28;20288;-82
2022/11/15 09:20:13;;;;;;;2.10;1.90;;;;;;;12.59;70.26;95064.56;4957808;28;20552;-81
2022/11/15 09:22:39;;;;;;;3.30;2.00;;;;;;;12.69;71.04;95065.16;4971041;28;20201;-82
2022/11/15 09:25:05;;;;;;;2.77;1.90;;;;;;;12.76;70.44;95066.09;4972214;28;20181;-81
2022/11/15 09:27:30;;;;;;;6.27;2.60;;;;;;;12.69;70.72;95053.91;4964768;28;20184;-81
2022/11/15 09:29:56;;;;;;;2.17;1.87;;;;;;;12.72;69.31;95062.22;4981756;28;20189;-79
2022/11/15 09:32:25;;;;;;;6.70;1.90;;;;;;;12.92;68.92;95057.34;4961175;28;20263;-78
2022/11/15 09:34:50;;;;;;;3.83;1.40;;;;;;;12.75;69.05;95061.88;4967750;28;20692;-79
2022/11/15 09:37:15;;;;;;;2.20;1.70;;;;;;;12.87;68.47;95059.66;4964024;28;20248;-81
2022/11/15 09:39:41;;;;;;;4.40;1.70;;;;;;;12.87;68.82;95051.84;4964176;28;20621;-82
2022/11/15 09:42:20;;;;;;;3.47;2.13;;;;;;;13.13;68.89;95055.91;4951093;28;20221;-81
2022/11/15 09:44:58;;;;;;;4.17;2.20;;;;;;;12.93;68.38;95056.38;4968661;28;20189;-82
2022/11/15 09:47:40;;;;;;;1.67;1.57;;;;;;;12.92;69.60;95057.34;4971146;28;20795;-82
2022/11/15 09:50:11;;;;;;;1.97;1.77;;;;;;;13.05;67.74;95059.38;4977692;28;20185;-82
2022/11/15 09:52:37;;;;;;;3.80;1.70;;;;;;;12.74;69.19;95060.25;4961228;28;20277;-82
2022/11/15 09:55:02;;;;;;;2.93;1.60;;;;;;;12.85;69.30;95060.81;4974583;28;20197;-82
2022/11/15 09:57:41;;;;;;;2.17;1.97;;;;;;;13.02;69.23;95059.72;4960869;28;20216;-82
2022/11/15 10:00:19;;;;;;;1.60;1.43;;;;;;;13.06;69.27;95053.16;4957446;28;20188;-82
2022/11/15 10:03:08;;;;;;;2.37;1.43;;;;;;;12.98;69.38;95046.22;4976907;28;20209;-81
2022/11/15 10:05:39;;;;;;;3.00;1.50;;;;;;;13.19;68.73;95045.63;4967281;28;20196;-80
2022/11/15 10:08:30;;;;;;;3.80;1.70;;;;;;;13.30;68.30;95041.78;4966211;28;20196;-81
2022/11/15 10:10:58;;;;;;;2.03;1.70;;;;;;;13.33;68.15;95047.44;4971274;28;20268;-81
2022/11/15 10:13:25;;;;;;;2.63;1.50;;;;;;;13.27;67.90;95039.53;4971165;28;20542;-81
2022/11/15 10:15:53;;;;;;;4.83;2.07;;;;;;;13.14;68.57;95040.06;4958272;28;20272;-81
2022/11/15 10:18:28;;;;;;;1.53;1.43;;;;;;;13.12;69.00;95038.63;4957183;28;20208;-81
2022/11/15 10:21:07;;;;;;;3.10;2.17;;;;;;;13.24;69.06;95040.66;4969287;28;20183;-82
2022/11/15 10:23:32;;;;;;;4.43;2.23;;;;;;;13.00;69.70;95036.44;4978541;28;20185;-82
2022/11/15 10:25:59;;;;;;;4.50;2.33;;;;;;;13.05;70.00;95036.72;4962954;28;20254;-82
2022/11/15 10:28:29;;;;;;;3.37;1.90;;;;;;;13.07;69.90;95031.31;4965190;28;20320;-81
2022/11/15 10:30:57;;;;;;;2.47;2.10;;;;;;;13.03;69.68;95025.66;4964768;28;20197;-81
2022/11/15 10:33:25;;;;;;;4.93;2.10;;;;;;;13.15;70.26;95030.44;4960292;28;20691;-82
2022/11/15 10:36:17;;;;;;;4.43;2.30;;;;;;;13.14;70.49;95019.22;4967550;28;20189;-82
2022/11/15 10:38:49;;;;;;;4.57;2.30;;;;;;;13.13;70.11;95012.38;4959490;28;20204;-82
2022/11/15 10:41:17;;;;;;;3.93;2.30;;;;;;;13.14;70.79;95014.00;4963561;28;20235;-82
2022/11/15 10:43:42;;;;;;;2.70;2.10;;;;;;;13.34;69.54;95011.75;4945339;28;20632;-82
2022/11/15 10:46:24;;;;;;;2.90;2.50;;;;;;;13.23;69.82;95009.56;4963025;28;20193;-81
2022/11/15 10:48:49;;;;;;;2.87;2.17;;;;;;;13.13;70.82;95007.16;4962409;28;20177;-81
2022/11/15 10:51:28;;;;;;;3.83;2.07;;;;;;;12.95;71.82;95007.47;4964457;28;20219;-80
2022/11/15 10:53:54;;;;;;;2.67;1.87;;;;;;;13.06;71.36;94998.44;4962271;28;20191;-80
2022/11/15 10:56:21;;;;;;;3.67;2.37;;;;;;;12.97;71.82;95007.31;4940359;28;20189;-81
2022/11/15 10:58:51;;;;;;;2.43;2.23;;;;;;;12.93;72.02;94995.63;4953253;28;20221;-81
2022/11/15 11:01:19;;;;;;;3.57;2.40;;;;;;;12.85;72.48;94995.69;4959828;28;20223;-82
2022/11/15 11:03:59;;;;;;;2.73;2.20;;;;;;;12.84;72.59;94994.88;4968938;28;20192;-81
2022/11/15 11:06:24;;;;;;;4.50;2.23;;;;;;;12.97;71.66;94996.88;4953094;28;20600;-82
2022/11/15 11:08:55;;;;;;;5.47;2.23;;;;;;;12.89;71.84;94994.34;4959659;28;20189;-81
2022/11/15 11:11:20;;;;;;;5.40;3.20;;;;;;;12.88;72.46;94984.91;4966661;28;20208;-80
2022/11/15 11:13:46;;;;;;;4.50;3.00;;;;;;;12.89;72.83;94984.72;4960412;28;20275;-81
2022/11/15 11:16:14;;;;;;;4.93;3.50;;;;;;;12.99;72.17;94972.28;4945816;28;20192;-81
2022/11/15 11:18:45;;;;;;;6.40;3.83;;;;;;;13.11;72.14;94974.47;4968869;28;20279;-82
2022/11/15 11:21:13;;;;;;;4.53;4.00;;;;;;;13.30;71.35;94963.53;4970720;28;20216;-82
2022/11/15 11:23:49;;;;;;;3.07;2.77;;;;;;;13.45;70.70;94961.75;4940957;28;20193;-82
2022/11/15 11:26:36;;;;;;;4.90;2.90;;;;;;;13.64;71.07;94959.59;4977065;28;20828;-82
2022/11/15 11:29:16;;;;;;;2.60;2.13;;;;;;;13.77;69.86;94944.09;4971868;28;20192;-83
2022/11/15 11:32:01;;;;;;;3.77;1.67;;;;;;;13.94;69.26;94950.75;4962892;28;20211;-82
2022/11/15 11:34:39;;;;;;;2.37;2.00;;;;;;;14.00;69.28;94959.66;4967758;28;20180;-82
2022/11/15 11:37:25;;;;;;;2.20;2.00;;;;;;;13.99;68.93;94952.81;4970120;28;20700;-83
2022/11/15 11:39:55;;;;;;;2.00;1.80;;;;;;;13.92;69.70;94951.94;4971702;28;20256;-83
2022/11/15 11:42:45;;;;;;;3.53;1.87;;;;;;;14.02;69.41;94948.03;4965028;28;20870;-82
2022/11/15 11:45:13;;;;;;;2.57;1.80;;;;;;;13.90;69.96;94944.28;4970081;28;20217;-82
2022/11/15 11:47:40;;;;;;;2.40;2.20;;;;;;;13.94;70.15;94940.31;4974952;28;20187;-82
2022/11/15 11:50:20;;;;;;;1.93;1.83;;;;;;;13.97;69.76;94936.53;4957324;28;20209;-82
2022/11/15 11:52:57;;;;;;;2.90;1.90;;;;;;;13.92;69.54;94931.84;4972273;28;20295;-83
2022/11/15 11:55:33;;;;;;;4.30;2.87;;;;;;;13.73;69.81;94933.22;4956310;28;20207;-81